Time;durP1;ratioP1;P1;durP2;ratioP2;P2;SDS_P1;SDS_P2;PMS_P1;PMS_P2;Temp;Humidity;BMP_temperature;BMP_pressure;BME280_temperature;BME280_humidity;BME280_pressure;Samples;Min_cycle;Max_cycle;Signal;HPM_P1;HPM_P2
2021/06/05 00:01:19;;;;;;;7.20;4.50;;;;;;;17.59;43.80;101395.56;5107682;28;20016;-66
2021/06/05 00:03:45;;;;;;;6.68;4.40;;;;;;;17.51;44.18;101389.63;5107469;28;20085;-66
2021/06/05 00:06:13;;;;;;;10.65;4.70;;;;;;;17.45;44.17;101388.00;5106187;28;20031;-65
2021/06/05 00:08:39;;;;;;;6.38;3.92;;;;;;;17.41;44.24;101394.19;5107312;28;20119;-66
2021/06/05 00:11:07;;;;;;;8.18;4.00;;;;;;;17.38;44.26;101390.78;5107334;28;20077;-66
2021/06/05 00:13:47;;;;;;;6.97;4.28;;;;;;;17.34;44.17;101390.84;5107303;28;20024;-70
2021/06/05 00:16:18;;;;;;;7.75;4.13;;;;;;;17.29;44.29;101382.22;5107272;28;20058;-68
2021/06/05 00:18:45;;;;;;;6.05;4.45;;;;;;;17.26;44.51;101382.28;5107219;28;20036;-69
2021/06/05 00:21:11;;;;;;;7.78;4.15;;;;;;;17.24;44.48;101389.31;5106965;28;20024;-68
2021/06/05 00:23:36;;;;;;;8.65;4.32;;;;;;;17.22;44.66;101396.38;5106600;28;20031;-68
2021/06/05 00:26:03;;;;;;;10.45;4.45;;;;;;;17.17;44.81;101391.19;5107061;28;20035;-68
2021/06/05 00:28:29;;;;;;;7.57;3.53;;;;;;;17.11;44.94;101387.84;5107086;28;20320;-69
2021/06/05 00:30:54;;;;;;;10.52;4.68;;;;;;;17.08;45.19;101388.75;5105477;28;20115;-69
2021/06/05 00:33:20;;;;;;;6.78;4.38;;;;;;;17.04;45.37;101389.69;5107091;28;20020;-69
2021/06/05 00:35:46;;;;;;;5.53;4.70;;;;;;;16.99;45.72;101392.41;5105768;28;20031;-70
2021/06/05 00:38:11;;;;;;;9.32;4.97;;;;;;;16.91;45.84;101386.44;5106700;28;20338;-68
2021/06/05 00:40:41;;;;;;;13.45;4.55;;;;;;;16.92;45.90;101394.28;5105083;28;20472;-69
2021/06/05 00:43:08;;;;;;;9.43;4.80;;;;;;;16.85;46.02;101388.28;5106834;28;20095;-69
2021/06/05 00:45:36;;;;;;;7.82;5.03;;;;;;;16.73;46.06;101378.03;5106607;28;20048;-69
2021/06/05 00:48:02;;;;;;;7.18;4.78;;;;;;;16.74;46.76;101387.63;5106784;28;20032;-69
2021/06/05 00:50:28;;;;;;;5.53;4.55;;;;;;;16.69;46.98;101384.22;5106582;28;20089;-69
2021/06/05 00:52:54;;;;;;;7.70;5.07;;;;;;;16.63;47.09;101393.06;5106292;28;20020;-69
2021/06/05 00:55:24;;;;;;;6.93;4.85;;;;;;;16.57;47.18;101394.03;5106570;28;20035;-69
2021/06/05 00:57:50;;;;;;;7.80;5.03;;;;;;;16.53;47.73;101391.50;5106406;28;20056;-70
2021/06/05 01:00:29;;;;;;;7.50;5.60;;;;;;;16.46;47.81;101385.50;5106498;28;20092;-69
2021/06/05 01:03:00;;;;;;;7.47;5.00;;;;;;;16.39;47.92;101389.97;5105443;28;20028;-69
2021/06/05 01:05:26;;;;;;;8.15;4.88;;;;;;;16.31;48.05;101387.47;5106215;28;20028;-69
2021/06/05 01:07:52;;;;;;;7.63;5.60;;;;;;;16.26;48.46;101389.34;5106093;28;20480;-67
2021/06/05 01:10:27;;;;;;;12.18;5.07;;;;;;;16.20;48.52;101386.78;5106186;28;20023;-69
2021/06/05 01:13:04;;;;;;;9.63;5.57;;;;;;;16.14;48.79;101385.16;5104805;28;20024;-68
2021/06/05 01:15:43;;;;;;;9.02;6.03;;;;;;;16.08;48.96;101374.78;5105912;28;20024;-69
2021/06/05 01:18:21;;;;;;;9.57;6.22;;;;;;;16.06;49.23;101385.28;5105869;28;20036;-69
2021/06/05 01:21:16;;;;;;;6.80;5.50;;;;;;;16.00;49.78;101384.50;5106017;28;20046;-68
2021/06/05 01:24:10;;;;;;;7.57;5.50;;;;;;;15.92;49.63;101385.47;5105826;28;20020;-69
2021/06/05 01:26:43;;;;;;;10.88;6.10;;;;;;;15.89;50.26;101379.41;5105940;28;20016;-69
2021/06/05 01:29:24;;;;;;;9.38;6.30;;;;;;;15.88;50.11;101382.91;5105779;28;20035;-70
2021/06/05 01:32:01;;;;;;;7.50;5.97;;;;;;;15.86;50.22;101388.19;5105804;28;20036;-69
2021/06/05 01:34:30;;;;;;;13.02;7.15;;;;;;;15.84;50.83;101380.34;5105659;28;20075;-69
2021/06/05 01:36:56;;;;;;;8.20;6.55;;;;;;;15.83;51.13;101381.22;5105640;28;20073;-68
2021/06/05 01:39:29;;;;;;;7.97;6.25;;;;;;;15.80;51.32;101381.25;5105342;28;20020;-69
2021/06/05 01:41:58;;;;;;;9.85;7.03;;;;;;;15.76;51.48;101384.81;5105714;28;20028;-69
2021/06/05 01:44:27;;;;;;;10.07;7.85;;;;;;;15.70;52.04;101374.44;5105378;28;20027;-68
2021/06/05 01:46:52;;;;;;;14.23;7.20;;;;;;;15.69;52.25;101375.31;5104089;28;20364;-69
2021/06/05 01:49:19;;;;;;;8.82;6.90;;;;;;;15.68;52.42;101377.09;5105440;28;20050;-69
2021/06/05 01:51:50;;;;;;;11.55;7.47;;;;;;;15.65;52.83;101366.66;5105598;28;20051;-69
2021/06/05 01:54:22;;;;;;;12.57;7.93;;;;;;;15.66;53.10;101372.72;5105127;28;20040;-69
2021/06/05 01:56:56;;;;;;;9.75;8.40;;;;;;;15.60;53.19;101361.50;5105336;28;20027;-69
2021/06/05 01:59:22;;;;;;;11.32;8.90;;;;;;;15.60;53.28;101371.09;5105207;28;20028;-69
2021/06/05 02:01:48;;;;;;;9.80;8.10;;;;;;;15.60;53.36;101369.34;5105258;28;20028;-69
2021/06/05 02:04:14;;;;;;;12.38;7.38;;;;;;;15.66;53.39;101364.88;5105175;28;20019;-70
2021/06/05 02:06:41;;;;;;;11.15;7.75;;;;;;;15.71;53.96;101361.34;5105190;28;20024;-69
2021/06/05 02:09:09;;;;;;;10.23;7.57;;;;;;;15.79;54.02;101369.06;5104987;28;20032;-69
2021/06/05 02:11:53;;;;;;;11.00;7.40;;;;;;;15.83;53.88;101354.19;5105056;28;20024;-69
2021/06/05 02:14:43;;;;;;;11.50;7.32;;;;;;;15.86;53.50;101362.84;5104881;28;20111;-69
2021/06/05 02:17:11;;;;;;;10.32;7.03;;;;;;;15.91;53.50;101367.16;5103454;28;20563;-70
2021/06/05 02:19:41;;;;;;;10.95;7.68;;;;;;;15.92;53.48;101361.91;5105162;28;20188;-70
2021/06/05 02:22:10;;;;;;;9.35;7.50;;;;;;;15.94;53.62;101365.34;5104983;28;20028;-69
2021/06/05 02:24:42;;;;;;;11.93;7.00;;;;;;;15.97;53.25;101360.06;5104613;28;20028;-69
2021/06/05 02:27:08;;;;;;;9.85;7.43;;;;;;;15.98;53.25;101363.56;5104691;28;20046;-69
2021/06/05 02:29:39;;;;;;;11.18;7.90;;;;;;;15.93;53.23;101361.00;5104930;28;20040;-70
2021/06/05 02:32:06;;;;;;;11.43;7.93;;;;;;;15.94;53.50;101361.88;5105003;28;20073;-70
2021/06/05 02:34:32;;;;;;;10.93;7.18;;;;;;;15.90;53.47;101360.16;5104541;28;20035;-70
2021/06/05 02:37:02;;;;;;;10.73;6.25;;;;;;;15.89;53.95;101366.31;5104619;28;20028;-70
2021/06/05 02:39:28;;;;;;;8.35;6.93;;;;;;;15.85;54.11;101363.72;5104297;28;20107;-70
2021/06/05 02:41:55;;;;;;;9.07;6.90;;;;;;;15.82;54.10;101363.78;5104388;28;20054;-69
2021/06/05 02:44:25;;;;;;;10.20;7.55;;;;;;;15.79;54.01;101358.59;5104287;28;20046;-69
2021/06/05 02:46:51;;;;;;;10.13;6.78;;;;;;;15.78;54.51;101359.50;5102956;28;20077;-69
2021/06/05 02:49:19;;;;;;;9.05;7.18;;;;;;;15.76;54.44;101356.03;5104335;28;20690;-69
2021/06/05 02:51:52;;;;;;;10.68;8.30;;;;;;;15.74;54.68;101363.03;5104199;28;20032;-69
2021/06/05 02:54:20;;;;;;;10.60;6.97;;;;;;;15.69;55.20;101355.25;5103795;28;20028;-70
2021/06/05 02:56:46;;;;;;;11.60;7.70;;;;;;;15.60;55.83;101350.16;5104130;28;20027;-69
2021/06/05 02:59:11;;;;;;;10.05;7.70;;;;;;;15.60;55.81;101358.88;5104103;28;20042;-69
2021/06/05 03:01:36;;;;;;;8.48;7.55;;;;;;;15.59;55.99;101359.75;5104054;28;20032;-69
2021/06/05 03:04:02;;;;;;;11.70;8.10;;;;;;;15.60;56.11;101364.09;5103964;28;20028;-68
2021/06/05 03:06:29;;;;;;;8.35;7.05;;;;;;;15.71;56.37;101361.34;5104130;28;20413;-69
2021/06/05 03:08:55;;;;;;;8.55;6.85;;;;;;;15.94;56.57;101361.88;5103822;28;20228;-68
2021/06/05 03:11:22;;;;;;;8.68;6.57;;;;;;;16.30;56.48;101356.06;5104156;28;20027;-69
2021/06/05 03:13:49;;;;;;;11.15;7.60;;;;;;;16.76;55.85;101350.91;5103922;28;20046;-69
2021/06/05 03:16:16;;;;;;;10.75;6.80;;;;;;;17.33;54.86;101357.63;5103693;28;20024;-70
2021/06/05 03:18:41;;;;;;;8.40;7.47;;;;;;;17.94;53.88;101358.00;5103679;28;20092;-70
2021/06/05 03:21:10;;;;;;;9.63;8.63;;;;;;;18.35;52.67;101350.03;5103877;28;20052;-71
2021/06/05 03:23:37;;;;;;;12.60;7.55;;;;;;;18.59;51.87;101339.78;5103772;28;20020;-70
2021/06/05 03:26:04;;;;;;;7.25;6.25;;;;;;;19.04;50.81;101346.38;5103217;28;20024;-68
2021/06/05 03:28:31;;;;;;;7.72;6.75;;;;;;;19.52;49.80;101346.75;5103750;28;20016;-69
2021/06/05 03:30:57;;;;;;;10.32;5.90;;;;;;;20.02;48.89;101349.56;5103576;28;20030;-69
2021/06/05 03:33:24;;;;;;;10.15;6.70;;;;;;;20.45;47.97;101347.28;5103756;28;20353;-69
2021/06/05 03:35:51;;;;;;;9.07;6.20;;;;;;;20.88;47.03;101341.41;5103553;28;20020;-69
2021/06/05 03:38:17;;;;;;;12.05;7.15;;;;;;;21.42;45.92;101349.06;5103348;28;20024;-69
2021/06/05 03:40:43;;;;;;;7.53;6.57;;;;;;;21.89;44.82;101342.81;5103695;28;20103;-69
2021/06/05 03:43:09;;;;;;;8.45;6.70;;;;;;;22.41;43.85;101341.50;5103767;28;20530;-69
2021/06/05 03:45:34;;;;;;;7.85;5.63;;;;;;;22.98;41.91;101341.72;5102095;28;20068;-69
2021/06/05 03:48:00;;;;;;;7.93;6.20;;;;;;;23.45;41.07;101335.13;5103656;28;20020;-69
2021/06/05 03:50:30;;;;;;;7.38;6.13;;;;;;;23.89;40.05;101341.84;5103571;28;20031;-69
2021/06/05 03:52:56;;;;;;;8.70;6.95;;;;;;;24.31;38.92;101345.97;5103400;28;20027;-69
2021/06/05 03:55:21;;;;;;;10.68;6.43;;;;;;;24.72;38.04;101337.63;5103444;28;20020;-69
2021/06/05 03:57:47;;;;;;;8.40;6.03;;;;;;;24.81;37.52;101335.44;5103511;28;20028;-68
2021/06/05 04:00:18;;;;;;;7.30;6.55;;;;;;;24.59;37.64;101331.25;5103537;28;20292;-69
2021/06/05 04:02:43;;;;;;;7.40;6.55;;;;;;;24.33;38.08;101328.19;5103423;28;20032;-69
2021/06/05 04:05:10;;;;;;;11.25;6.78;;;;;;;24.15;38.53;101338.81;5103482;28;20153;-69
2021/06/05 04:07:37;;;;;;;7.35;6.25;;;;;;;24.09;38.59;101336.47;5103138;28;20028;-69
2021/06/05 04:10:04;;;;;;;7.10;6.40;;;;;;;24.13;38.42;101345.97;5103493;28;20324;-70
2021/06/05 04:12:29;;;;;;;10.27;5.90;;;;;;;24.20;38.39;101346.53;5103176;28;20057;-69
2021/06/05 04:14:55;;;;;;;8.15;6.50;;;;;;;24.30;38.65;101349.59;5103162;28;20024;-69
2021/06/05 04:17:20;;;;;;;7.60;6.65;;;;;;;24.54;38.12;101344.78;5102972;28;20067;-69
2021/06/05 04:19:45;;;;;;;7.22;6.53;;;;;;;24.83;38.04;101350.31;5103283;28;20491;-70
2021/06/05 04:22:11;;;;;;;8.80;6.53;;;;;;;25.22;37.29;101348.25;5103339;28;20020;-70
2021/06/05 04:24:36;;;;;;;6.65;6.00;;;;;;;25.62;36.71;101349.63;5102878;28;20028;-70
2021/06/05 04:27:03;;;;;;;6.82;5.55;;;;;;;26.06;36.15;101353.28;5103032;28;20028;-70
2021/06/05 04:29:29;;;;;;;10.50;6.25;;;;;;;26.32;35.75;101355.34;5103458;28;20047;-70
2021/06/05 04:31:55;;;;;;;7.20;5.95;;;;;;;26.84;34.83;101353.06;5103243;28;20032;-70
2021/06/05 04:34:20;;;;;;;6.95;5.63;;;;;;;26.94;34.18;101353.34;5103024;28;20043;-70
2021/06/05 04:36:49;;;;;;;6.90;6.00;;;;;;;26.89;34.14;101358.09;5103251;28;20046;-70
2021/06/05 04:39:14;;;;;;;8.80;6.07;;;;;;;27.11;33.57;101362.97;5106434;28;20069;-70
2021/06/05 04:41:40;;;;;;;7.25;5.80;;;;;;;27.53;33.30;101356.75;5106827;28;20422;-70
2021/06/05 04:44:05;;;;;;;6.03;5.38;;;;;;;27.90;32.06;101358.81;5106445;28;20108;-68
2021/06/05 04:46:31;;;;;;;10.13;5.07;;;;;;;28.14;31.17;101356.31;5106570;28;20020;-70
2021/06/05 04:48:56;;;;;;;8.77;5.45;;;;;;;28.41;30.44;101362.53;5106652;28;20173;-69
2021/06/05 04:51:22;;;;;;;5.95;5.35;;;;;;;28.33;29.97;101355.94;5106619;28;20265;-70
2021/06/05 04:53:49;;;;;;;6.45;5.30;;;;;;;28.54;29.81;101365.22;5106344;28;20123;-70
2021/06/05 04:56:19;;;;;;;10.05;5.82;;;;;;;28.82;29.57;101357.91;5106913;28;20060;-70
2021/06/05 04:58:44;;;;;;;7.20;5.22;;;;;;;29.23;29.23;101365.75;5106647;28;20020;-66
2021/06/05 05:01:09;;;;;;;6.53;5.20;;;;;;;29.77;28.26;101355.56;5106453;28;20028;-67
2021/06/05 05:03:35;;;;;;;7.63;5.53;;;;;;;30.01;27.63;101357.34;5105042;28;20043;-66
2021/06/05 05:06:02;;;;;;;10.45;5.63;;;;;;;30.02;27.44;101356.38;5106274;28;20028;-66
2021/06/05 05:08:29;;;;;;;8.40;5.47;;;;;;;30.29;27.53;101360.59;5106178;28;20074;-67
2021/06/05 05:10:56;;;;;;;6.38;5.40;;;;;;;30.44;26.79;101361.22;5106240;28;20020;-66
2021/06/05 05:13:24;;;;;;;7.50;5.07;;;;;;;30.63;26.60;101355.25;5106372;28;20026;-66
2021/06/05 05:15:50;;;;;;;7.18;5.55;;;;;;;30.53;26.84;101359.63;5106150;28;20027;-66
2021/06/05 05:18:16;;;;;;;7.63;5.75;;;;;;;30.72;26.58;101358.19;5105907;28;20040;-67
2021/06/05 05:20:43;;;;;;;6.95;5.03;;;;;;;31.07;26.24;101349.16;5106126;28;20503;-65
2021/06/05 05:23:10;;;;;;;6.75;5.13;;;;;;;31.35;25.90;101354.94;5105787;28;20059;-65
2021/06/05 05:25:37;;;;;;;6.90;5.15;;;;;;;31.69;25.39;101353.97;5105713;28;20035;-65
2021/06/05 05:28:03;;;;;;;6.53;5.55;;;;;;;31.95;24.88;101353.59;5105983;28;20031;-65
2021/06/05 05:30:36;;;;;;;4.65;4.18;;;;;;;32.10;24.57;101356.81;5105663;28;20036;-66
2021/06/05 05:33:01;;;;;;;7.43;5.03;;;;;;;32.21;24.78;101355.03;5104225;28;20034;-66
2021/06/05 05:35:27;;;;;;;8.55;5.13;;;;;;;32.32;23.95;101356.81;5105683;28;20020;-65
2021/06/05 05:37:53;;;;;;;6.35;4.10;;;;;;;32.36;23.86;101356.41;5105600;28;20033;-66
2021/06/05 05:40:20;;;;;;;5.78;4.03;;;;;;;32.44;23.35;101365.63;5105522;28;20028;-66
2021/06/05 05:42:45;;;;;;;6.40;4.53;;;;;;;32.21;22.59;101358.59;5105509;28;20464;-66
2021/06/05 05:45:12;;;;;;;5.97;4.35;;;;;;;31.71;23.13;101361.91;5105402;28;20035;-66
2021/06/05 05:47:37;;;;;;;5.47;4.30;;;;;;;31.59;23.15;101356.59;5105268;28;20083;-66
2021/06/05 05:50:07;;;;;;;6.90;4.25;;;;;;;31.34;23.52;101355.91;5105328;28;20028;-66
2021/06/05 05:52:32;;;;;;;7.57;4.28;;;;;;;30.94;24.31;101352.00;5105249;28;20102;-66
2021/06/05 05:54:58;;;;;;;4.68;3.90;;;;;;;30.75;24.42;101364.13;5105339;28;20031;-66
2021/06/05 05:57:23;;;;;;;9.90;3.97;;;;;;;30.67;24.65;101370.13;5105301;28;20027;-65
2021/06/05 05:59:49;;;;;;;6.10;4.47;;;;;;;30.62;24.45;101366.97;5105141;28;20016;-66
2021/06/05 06:02:14;;;;;;;13.35;4.97;;;;;;;30.47;24.67;101374.38;5105194;28;20149;-66
2021/06/05 06:04:39;;;;;;;5.82;4.00;;;;;;;30.36;25.18;101358.28;5105011;28;20028;-66
2021/06/05 06:07:05;;;;;;;6.13;4.68;;;;;;;30.30;24.97;101367.66;5104931;28;20031;-66
2021/06/05 06:09:30;;;;;;;6.38;4.32;;;;;;;30.16;25.30;101368.72;5104550;28;20468;-65
2021/06/05 06:11:55;;;;;;;7.00;4.38;;;;;;;30.50;25.13;101367.91;5104612;28;20024;-65
2021/06/05 06:14:21;;;;;;;6.28;4.40;;;;;;;30.50;24.86;101366.09;5104400;28;20027;-65
2021/06/05 06:16:46;;;;;;;4.88;3.75;;;;;;;30.55;24.90;101376.44;5104517;28;20023;-65
2021/06/05 06:19:13;;;;;;;6.80;3.88;;;;;;;30.71;24.72;101372.53;5104073;28;20047;-68
2021/06/05 06:21:40;;;;;;;6.68;4.53;;;;;;;30.73;24.86;101363.44;5104334;28;20032;-67
2021/06/05 06:24:06;;;;;;;6.35;4.38;;;;;;;30.80;24.64;101364.66;5104041;28;20020;-66
2021/06/05 06:26:32;;;;;;;4.50;4.10;;;;;;;30.92;24.50;101378.06;5104417;28;20089;-66
2021/06/05 06:29:07;;;;;;;5.43;4.28;;;;;;;30.78;24.62;101376.47;5104075;28;20487;-67
2021/06/05 06:31:35;;;;;;;6.13;3.72;;;;;;;30.48;25.21;101375.25;5104396;28;20528;-67
2021/06/05 06:34:01;;;;;;;7.10;4.10;;;;;;;30.12;25.29;101381.47;5104170;28;20048;-66
2021/06/05 06:36:26;;;;;;;4.68;3.83;;;;;;;29.76;25.51;101377.97;5103872;28;20100;-66
2021/06/05 06:38:52;;;;;;;6.03;4.25;;;;;;;29.37;26.15;101387.00;5103585;28;20111;-66
2021/06/05 06:41:22;;;;;;;5.85;3.72;;;;;;;29.31;26.50;101380.25;5103952;28;20015;-66
2021/06/05 06:43:47;;;;;;;6.90;4.07;;;;;;;29.42;26.51;101383.97;5104126;28;20024;-66
2021/06/05 06:46:20;;;;;;;7.57;4.03;;;;;;;29.80;26.29;101387.44;5103633;28;20054;-65
2021/06/05 06:48:48;;;;;;;4.95;3.40;;;;;;;30.21;25.96;101381.78;5103895;28;20016;-66
2021/06/05 06:51:13;;;;;;;6.38;4.07;;;;;;;30.75;25.26;101387.44;5103605;28;20031;-65
2021/06/05 06:53:39;;;;;;;5.95;3.80;;;;;;;31.22;24.70;101384.59;5103681;28;20020;-65
2021/06/05 06:56:06;;;;;;;4.25;3.85;;;;;;;31.40;24.14;101376.91;5103613;28;20481;-64
2021/06/05 06:58:32;;;;;;;6.35;3.72;;;;;;;31.53;23.56;101379.44;5103802;28;20032;-65
2021/06/05 07:00:58;;;;;;;6.70;3.70;;;;;;;31.33;23.37;101375.66;5102923;28;20111;-65
2021/06/05 07:03:24;;;;;;;4.75;3.72;;;;;;;30.70;24.07;101385.13;5103629;28;20032;-66
2021/06/05 07:05:49;;;;;;;6.95;4.00;;;;;;;30.27;24.31;101375.94;5103457;28;20051;-66
2021/06/05 07:08:22;;;;;;;5.97;3.58;;;;;;;30.22;24.50;101383.47;5103551;28;20020;-67
2021/06/05 07:10:51;;;;;;;5.95;4.03;;;;;;;30.14;24.06;101384.03;5103571;28;20035;-65
2021/06/05 07:13:16;;;;;;;7.00;4.70;;;;;;;29.77;24.82;101385.88;5103673;28;20032;-65
2021/06/05 07:15:42;;;;;;;3.92;3.50;;;;;;;29.26;25.43;101384.25;5102152;28;20016;-66
2021/06/05 07:18:10;;;;;;;6.53;3.67;;;;;;;28.91;26.19;101378.66;5103240;28;20786;-65
2021/06/05 07:20:36;;;;;;;6.88;4.32;;;;;;;28.87;26.50;101378.97;5103851;28;20048;-65
2021/06/05 07:23:02;;;;;;;7.50;3.63;;;;;;;29.14;26.49;101381.50;5103202;28;20039;-65
2021/06/05 07:25:27;;;;;;;5.13;3.80;;;;;;;29.37;25.79;101376.28;5103349;28;20043;-64
2021/06/05 07:27:57;;;;;;;5.22;3.83;;;;;;;29.22;25.85;101380.94;5103388;28;20075;-62
2021/06/05 07:30:24;;;;;;;4.63;4.07;;;;;;;29.39;25.35;101373.50;5103162;28;20021;-63
2021/06/05 07:32:51;;;;;;;5.60;3.22;;;;;;;29.75;24.79;101374.44;5103285;28;20028;-63
2021/06/05 07:35:17;;;;;;;4.85;3.60;;;;;;;30.25;24.17;101373.38;5103024;28;20460;-62
2021/06/05 07:37:45;;;;;;;8.45;3.95;;;;;;;30.52;24.37;101374.00;5103097;28;20032;-63
2021/06/05 07:40:12;;;;;;;4.03;3.60;;;;;;;30.94;24.14;101370.75;5103651;28;20016;-63
2021/06/05 07:42:38;;;;;;;7.65;3.65;;;;;;;31.36;23.66;101369.22;5102059;28;20047;-62
2021/06/05 07:45:07;;;;;;;5.32;3.45;;;;;;;31.79;22.93;101364.78;5103156;28;20020;-62
2021/06/05 07:47:33;;;;;;;5.38;3.03;;;;;;;32.30;21.38;101367.69;5103376;28;20112;-62
2021/06/05 07:49:59;;;;;;;5.90;3.42;;;;;;;32.68;20.88;101364.47;5103171;28;20027;-63
2021/06/05 07:52:27;;;;;;;5.88;2.90;;;;;;;32.99;20.79;101362.59;5103412;28;20031;-63
2021/06/05 07:54:54;;;;;;;5.20;3.15;;;;;;;33.44;20.85;101367.63;5101198;28;20054;-62
2021/06/05 07:57:23;;;;;;;5.32;3.50;;;;;;;33.25;20.84;101362.09;5103391;28;20126;-62
2021/06/05 07:59:49;;;;;;;6.55;3.63;;;;;;;33.14;21.37;101363.09;5102970;28;20024;-62
2021/06/05 08:02:15;;;;;;;5.38;3.53;;;;;;;33.37;21.09;101360.13;5103311;28;20031;-63
2021/06/05 08:04:40;;;;;;;6.60;3.38;;;;;;;33.82;20.76;101354.34;5103111;28;20024;-63
2021/06/05 08:07:05;;;;;;;5.15;3.55;;;;;;;34.32;20.44;101355.94;5103083;28;20020;-63
2021/06/05 08:09:31;;;;;;;4.05;3.45;;;;;;;34.86;19.43;101351.72;5103153;28;20057;-63
2021/06/05 08:11:57;;;;;;;5.57;3.40;;;;;;;35.20;19.54;101344.84;5105148;28;20077;-65
2021/06/05 08:14:23;;;;;;;7.35;3.22;;;;;;;35.64;19.29;101348.63;5106875;28;20031;-68
2021/06/05 08:16:48;;;;;;;8.82;3.70;;;;;;;36.01;18.28;101342.16;5106745;28;20035;-65
2021/06/05 08:19:14;;;;;;;8.05;3.88;;;;;;;36.16;18.12;101341.56;5106857;28;20031;-70
2021/06/05 08:21:42;;;;;;;11.32;4.85;;;;;;;36.61;18.16;101342.31;5107167;28;20137;-67
2021/06/05 08:24:09;;;;;;;9.13;4.63;;;;;;;36.93;17.58;101337.19;5106961;28;20035;-67
2021/06/05 08:26:35;;;;;;;10.18;4.95;;;;;;;36.98;17.42;101342.97;5107092;28;20024;-66
2021/06/05 08:29:01;;;;;;;6.78;4.07;;;;;;;37.24;16.79;101341.16;5107197;28;20031;-62
2021/06/05 08:31:26;;;;;;;4.20;3.60;;;;;;;37.15;16.71;101342.97;5106807;28;20027;-64
2021/06/05 08:33:51;;;;;;;14.00;5.47;;;;;;;36.92;17.47;101335.50;5106818;28;20020;-64
2021/06/05 08:36:22;;;;;;;7.80;3.53;;;;;;;37.05;17.21;101338.56;5106798;28;20123;-66
2021/06/05 08:38:48;;;;;;;11.27;4.60;;;;;;;37.13;17.27;101336.91;5104798;28;20121;-64
2021/06/05 08:41:23;;;;;;;5.25;3.70;;;;;;;37.29;16.42;101328.81;5106473;28;20064;-66
2021/06/05 08:43:51;;;;;;;4.05;3.22;;;;;;;36.62;16.19;101326.91;5106394;28;20468;-63
2021/06/05 08:46:24;;;;;;;7.45;3.95;;;;;;;36.07;17.46;101317.19;5106346;28;20031;-70
2021/06/05 08:48:50;;;;;;;6.43;3.53;;;;;;;35.89;17.48;101321.81;5106436;28;20028;-65
2021/06/05 08:51:25;;;;;;;8.05;3.47;;;;;;;35.86;17.88;101320.28;5105928;28;20024;-63
2021/06/05 08:53:53;;;;;;;7.80;3.83;;;;;;;35.79;17.97;101311.97;5105987;28;20024;-66
2021/06/05 08:56:26;;;;;;;4.97;3.60;;;;;;;35.54;17.86;101309.06;5106356;28;20024;-69
2021/06/05 08:58:57;;;;;;;7.65;3.60;;;;;;;34.42;18.83;101315.47;5105279;28;20059;-72
2021/06/05 09:01:36;;;;;;;6.20;3.77;;;;;;;34.10;19.58;101308.63;5104841;28;20472;-69
2021/06/05 09:04:09;;;;;;;4.32;3.47;;;;;;;34.89;19.46;101310.97;5089786;28;20264;-62
2021/06/05 09:06:39;;;;;;;4.13;3.45;;;;;;;35.33;18.11;101310.25;5105999;28;20016;-62
2021/06/05 09:09:08;;;;;;;5.22;3.13;;;;;;;35.71;17.79;101312.78;5105736;28;20020;-62
2021/06/05 09:11:34;;;;;;;6.07;3.42;;;;;;;36.15;17.76;101316.41;5106204;28;20058;-62
2021/06/05 09:14:00;;;;;;;5.25;3.53;;;;;;;36.54;17.08;101315.06;5105968;28;20024;-59
2021/06/05 09:16:47;;;;;;;5.63;3.15;;;;;;;36.91;17.59;101315.72;5105933;28;20020;-61
2021/06/05 09:19:28;;;;;;;5.93;3.60;;;;;;;37.26;16.85;101310.19;5105913;28;20101;-61
2021/06/05 09:22:22;;;;;;;3.30;3.00;;;;;;;37.47;16.75;101310.69;5105809;28;20042;-63
2021/06/05 09:24:52;;;;;;;9.75;4.15;;;;;;;37.76;16.38;101306.63;5105248;28;20098;-69
2021/06/05 09:27:17;;;;;;;4.57;3.00;;;;;;;37.75;16.04;101316.63;5105905;28;20028;-63
2021/06/05 09:29:47;;;;;;;6.20;3.45;;;;;;;37.16;16.46;101301.38;5106084;28;20024;-64
2021/06/05 09:32:14;;;;;;;5.22;3.58;;;;;;;36.29;16.57;101306.88;5106048;28;20030;-60
2021/06/05 09:34:53;;;;;;;4.60;3.40;;;;;;;36.04;17.71;101303.19;5105511;28;20111;-60
2021/06/05 09:37:56;;;;;;;5.10;3.40;;;;;;;36.32;17.32;101301.16;5105834;28;20099;-59
2021/06/05 09:40:25;;;;;;;5.55;3.33;;;;;;;36.74;16.63;101301.31;5101413;28;20040;-59
2021/06/05 09:43:17;;;;;;;5.22;3.10;;;;;;;36.46;16.63;101301.53;5105545;28;20050;-59
2021/06/05 09:45:44;;;;;;;;;;;;;;;35.84;16.76;101303.41;5105740;28;20031;-62
2021/06/05 09:48:40;;;;;;;4.40;3.10;;;;;;;34.94;17.69;101291.66;5105180;28;19935;-66
2021/06/05 09:51:33;;;;;;;7.65;3.20;;;;;;;34.68;17.78;101300.44;5103651;28;20036;-60
2021/06/05 09:54:14;;;;;;;6.85;3.33;;;;;;;33.83;18.29;101294.97;5105002;28;20024;-61
2021/06/05 09:56:45;;;;;;;5.22;3.28;;;;;;;33.46;19.09;101298.38;5104898;28;20024;-62
2021/06/05 09:59:29;;;;;;;4.75;3.47;;;;;;;33.01;20.10;101295.22;5105295;28;20072;-61
2021/06/05 10:01:58;;;;;;;5.80;3.80;;;;;;;32.98;19.29;101295.50;5104964;28;20034;-61
2021/06/05 10:04:30;;;;;;;3.85;3.30;;;;;;;32.86;19.04;101292.94;5104801;28;20090;-60
2021/06/05 10:06:58;;;;;;;8.73;3.65;;;;;;;32.81;19.60;101297.91;5104404;28;20035;-60
2021/06/05 10:09:27;;;;;;;6.22;3.33;;;;;;;32.88;19.58;101288.28;5104253;28;20471;-59
2021/06/05 10:12:04;;;;;;;6.03;3.30;;;;;;;32.94;19.27;101294.09;5104858;28;20031;-59
2021/06/05 10:14:51;;;;;;;3.58;3.03;;;;;;;32.97;19.12;101296.50;5104664;28;20020;-59
2021/06/05 10:17:27;;;;;;;7.60;3.30;;;;;;;32.72;19.20;101294.19;5104177;28;20036;-61
2021/06/05 10:20:03;;;;;;;6.35;3.60;;;;;;;32.29;20.16;101290.75;5104535;28;20102;-60
2021/06/05 10:22:28;;;;;;;8.82;3.58;;;;;;;32.37;20.83;101293.63;5104116;28;20023;-59
2021/06/05 10:25:15;;;;;;;7.53;3.30;;;;;;;32.97;20.38;101286.56;5103889;28;20105;-59
2021/06/05 10:27:42;;;;;;;4.60;4.00;;;;;;;33.70;20.22;101289.03;5103994;28;20059;-60
2021/06/05 10:30:26;;;;;;;4.72;3.60;;;;;;;34.40;19.31;101282.44;5102134;28;20024;-59
2021/06/05 10:32:52;;;;;;;5.93;3.17;;;;;;;34.56;18.66;101289.88;5102574;28;20228;-60
2021/06/05 10:35:39;;;;;;;4.68;3.13;;;;;;;34.92;18.56;101277.47;5101560;28;20024;-59
2021/06/05 10:38:10;;;;;;;5.68;3.38;;;;;;;35.18;18.45;101282.94;5103308;28;20055;-60
2021/06/05 10:40:36;;;;;;;4.53;3.38;;;;;;;35.40;17.98;101274.53;5104277;28;20099;-59
2021/06/05 10:43:05;;;;;;;6.25;3.20;;;;;;;35.72;17.75;101273.13;5104184;28;20035;-60
2021/06/05 10:45:34;;;;;;;5.63;3.50;;;;;;;36.03;17.62;101272.59;5103877;28;20024;-60
2021/06/05 10:48:05;;;;;;;4.47;3.10;;;;;;;36.19;17.49;101274.53;5104044;28;20024;-60
2021/06/05 10:50:35;;;;;;;6.30;3.58;;;;;;;36.16;17.30;101279.41;5104218;28;20477;-60
2021/06/05 10:53:15;;;;;;;5.45;3.60;;;;;;;35.93;17.28;101280.00;5103956;28;20032;-60
2021/06/05 10:56:02;;;;;;;4.97;3.25;;;;;;;35.71;16.92;101288.47;5103964;28;20020;-60
2021/06/05 10:58:33;;;;;;;5.57;3.38;;;;;;;34.96;17.31;101284.25;5104128;28;20024;-59
2021/06/05 11:01:03;;;;;;;3.97;2.97;;;;;;;33.87;17.84;101280.19;5103900;28;20031;-59
2021/06/05 11:03:30;;;;;;;6.85;3.00;;;;;;;32.88;19.01;101280.19;5103838;28;20028;-60
2021/06/05 11:05:58;;;;;;;7.80;3.78;;;;;;;32.09;20.18;101301.44;5103879;28;20570;-60
2021/06/05 11:08:23;;;;;;;4.25;2.72;;;;;;;31.17;21.03;101285.75;5103241;28;20028;-60
2021/06/05 11:11:00;;;;;;;4.00;3.37;;;;;;;30.13;22.94;101296.66;5104061;28;20460;-60
2021/06/05 11:13:31;;;;;;;6.55;3.20;;;;;;;29.79;23.51;101297.47;5103876;28;20345;-60
2021/06/05 11:16:01;;;;;;;5.03;3.30;;;;;;;29.49;24.06;101298.78;5103710;28;20020;-60
2021/06/05 11:18:34;;;;;;;5.10;3.28;;;;;;;29.01;25.07;101292.47;5103557;28;20248;-60
2021/06/05 11:21:22;;;;;;;4.55;3.42;;;;;;;28.62;25.79;101298.75;5104083;28;20040;-59
2021/06/05 11:23:56;;;;;;;6.20;3.00;;;;;;;28.19;26.05;101297.28;5103561;28;20417;-60
2021/06/05 11:26:34;;;;;;;5.25;3.42;;;;;;;27.84;26.73;101296.91;5103683;28;20028;-59
2021/06/05 11:29:26;;;;;;;5.15;3.42;;;;;;;27.39;26.58;101297.22;5103639;28;20024;-59
2021/06/05 11:32:20;;;;;;;7.88;3.35;;;;;;;26.74;27.00;101307.53;5103665;28;20055;-59
2021/06/05 11:34:46;;;;;;;4.63;2.75;;;;;;;26.34;27.20;101310.88;5103655;28;20028;-61